Terminal Aerodrome Forecast
Issued by NWS

Home | Current Version | Previous Version | Text Only | Print | Product List | Glossary On
Versions: 1 2 3 4 5 6 7 8 9 10 11 12 13 14 15 16 17 18
335
FTUS44 KTSA 261725
TAFXNA
TAF
KXNA 261725Z 2618/2718 VRB04KT P6SM BKN250
     FM262100 14011G17KT P6SM BKN250
     FM270200 15010KT P6SM VCTS OVC035CB
      TEMPO 2702/2705 4SM TSRA OVC015CB
     FM270500 17006KT 4SM BR VCTS OVC015CB
     FM270900 VRB05KT 4SM BR VCSH OVC006=

USA.gov is the U.S. government's official web portal to all federal, state and local government web resources and services.